Aeroporto :
LOGIN :

Iscrizione | Disclaimer

   EN    FR    IT 

 










Sommario :    VFR   VFR Marginale   IFR   IFR Intensivo   IFR Molto Intensivo
Visibilità : 
Base nubi : 
>= 8 km
>= 3000ft
5 / 8 km
1000 / 3000 ft
1500m / 5 km
500 / 1000 ft
800 / 1500m
200 / 500 ft
< 800m
< 200 ft
Simboli :   Temporali  Nebbia  Neve Forte  Precipitazioni Forti  Vento > 20 kt
SIGMETs :   Varie  Temporali  Ghiacco  Turbolenza  Onda orograficha  Ceneri Vulcaniche







- Altitudine del aeroporto : 2425 ft


ETHA - Altenstadt Army

ULTIMO METAR :
  • 270520Z VRB01KT 9999 BKN070 11/09 Q1013 BLU BLU

METARs OBSOLETI :
  • 270420Z 32001KT 9999 BKN070 10/09 Q1013 BLU BLU
  • 270320Z VRB01KT 9999 BKN060 10/09 Q1013 BLU

TAF TAF ETHA
Valido dal 27 a 05 ore il 27 a 14 ore UTC


270420Z 2705/2714 VRB03KT 9999 NSW BKN060 BKN280
TEMPO 2712/2714 04005KT 5000 SHRA SCT020 BKN030TCU BKN250
Nessun NOTAM noto per questo aeroporto.



MetMap, La meteo Aeronautica in un colpo d'occhio ! - Copyright ORBIFLY Dicembre 2007 - Disclaimer

ORBIFLY MET'MAP TEAM :

Programmazione e sviluppo : Alexandra Zaïnal
Concezione e sviluppo : Baudouin d'Aumeries
Co-Programmazione e sviluppo : Marc-Olivier Méhu
Supporto tecnico e logistico : Manuel Goepfert
Aiuto per la traduzione : Arnaldo La Scala

Contatto : metmap@orbifly.com




FONTI E CREDITI :

   NOAA